Aérodrome :
LOGIN :

S'inscrire | Disclaimer

   EN    FR    IT 

 










Légende :    VFR   VFR Marginal   IFR   IFR Intensif   IFR Très Intensif
Visi : 
Plafond : 
>= 8 km
>= 3000ft
5 à 8 km
1000 à 3000 ft
1500m à 5 km
500 à 1000 ft
800 à 1500m
200 à 500 ft
< 800m
< 200 ft
Symboles :   Orages  Brouillard  Fortes neiges  Fortes précipitations  Vent > 20 kt
SIGMETs :   Divers  Orages  Givrage  Turbulence  Onde Orograph.  Cendres Volcan.






- Altitude de l'aérodrome : 299 ft
- Code IATA : EDM


LFRI - La Roche Sur Yon - Les Ajoncs

DERNIER METAR :
  • 200800Z AUTO 25005KT 220V280 9999 FEW010 BKN016 OVC027 19/17 Q1018 NOSIG

METARs EXPIRÉS :
  • 200730Z AUTO 25006KT 9999 FEW011 BKN036 BKN044 19/17 Q1017 NOSIG
  • 200700Z AUTO 20006KT 170V240 9999 FEW033 SCT041 OVC049 19/17 Q1017 BECMG 30012KT
  • 200630Z AUTO 18007KT 140V200 9999 FEW046 BKN210 20/17 Q1016 BECMG 30012KT
  • 200600Z AUTO 12005KT 080V160 CAVOK 19/17 Q1016 NOSIG
  • 200530Z AUTO 09005KT 9999 SCT039 SCT045 BKN064 18/17 Q1016 NOSIG

TAF TAF LFRI
Valide du 20 à 06h jusqu'au 21 à 06h UTC


200500Z 2006/2106 36004KT 9999 BKN040
BECMG 2008/2010 30012KT
BECMG 2100/2102 02004KT



MET'MAP, la Météo Aéronautique d'un coup d'oeil ! - Copyright ORBIFLY Décembre 2007 - Disclaimer

ORBIFLY MET'MAP TEAM :

Programmation & Développement : Alexandra Zaïnal
Sur une idée originale de : Baudouin d'Aumeries
Soutien technique & logistique : Manuel Goepfert
Assistance : Marc-Olivier Méhu

Contact : metmap@orbifly.com




SOURCES & CREDITS :

   NOAA